Time;durP1;ratioP1;P1;durP2;ratioP2;P2;SDS_P1;SDS_P2;PMS_P1;PMS_P2;Temp;Humidity;BMP_temperature;BMP_pressure;BME280_temperature;BME280_humidity;BME280_pressure;Samples;Min_cycle;Max_cycle;Signal;HPM_P1;HPM_P2
2021/12/13 00:01:39;;;;;;;;;;;4.10;99.90;;;;;;5046576;28;19942;-79
2021/12/13 00:04:06;;;;;;;;;;;4.10;99.90;;;;;;5045306;28;20439;-79
2021/12/13 00:06:43;;;;;;;;;;;4.10;99.90;;;;;;5041647;28;20024;-79
2021/12/13 00:09:11;;;;;;;;;;;4.10;99.90;;;;;;5043513;28;20046;-78
2021/12/13 00:11:44;;;;;;;;;;;4.10;99.90;;;;;;5047756;28;20056;-80
2021/12/13 00:14:16;;;;;;;;;;;4.00;99.90;;;;;;5045991;28;20011;-79
2021/12/13 00:16:44;;;;;;;;;;;4.00;99.90;;;;;;5037507;28;19935;-79
2021/12/13 00:19:23;;;;;;;;;;;4.00;99.90;;;;;;5045185;28;19979;-80
2021/12/13 00:21:56;;;;;;;;;;;4.00;99.90;;;;;;5028688;28;20335;-80
2021/12/13 00:24:27;;;;;;;;;;;4.00;99.90;;;;;;5029697;28;19965;-80
2021/12/13 00:27:20;;;;;;;;;;;3.90;99.90;;;;;;5047607;28;19920;-80
2021/12/13 00:30:04;;;;;;;;;;;3.90;99.90;;;;;;5037525;28;19924;-80
2021/12/13 00:32:39;;;;;;;;;;;3.90;99.90;;;;;;5045397;28;19931;-80
2021/12/13 00:35:09;;;;;;;;;;;4.00;99.90;;;;;;5047772;28;20039;-80
2021/12/13 00:37:39;;;;;;;;;;;3.90;99.90;;;;;;5047001;28;19945;-80
2021/12/13 00:40:06;;;;;;;;;;;4.00;99.90;;;;;;5045953;28;19968;-80
2021/12/13 00:42:55;;;;;;;;;;;4.00;99.90;;;;;;5044375;28;19927;-80
2021/12/13 00:45:25;;;;;;;;;;;4.00;99.90;;;;;;5046581;28;19920;-80
2021/12/13 00:47:52;;;;;;;;;;;4.00;99.90;;;;;;5047130;28;19921;-80
2021/12/13 00:50:23;;;;;;;;;;;4.00;99.90;;;;;;5045276;28;20286;-80
2021/12/13 00:52:51;;;;;;;;;;;4.00;99.90;;;;;;5049553;28;19931;-78
2021/12/13 00:55:23;;;;;;;;;;;4.00;99.90;;;;;;5050238;28;20339;-78
2021/12/13 00:57:50;;;;;;;;;;;4.00;99.90;;;;;;5049164;28;20049;-79
2021/12/13 01:00:20;;;;;;;;;;;4.00;99.90;;;;;;5048417;28;19921;-78
2021/12/13 01:02:54;;;;;;;;;;;4.00;99.90;;;;;;5048659;28;19929;-78
2021/12/13 01:05:24;;;;;;;;;;;4.10;99.90;;;;;;5046701;28;19925;-78
2021/12/13 01:08:03;;;;;;;;;;;4.10;99.90;;;;;;5045981;28;20443;-79
2021/12/13 01:10:41;;;;;;;;;;;4.10;99.90;;;;;;5054923;28;19955;-78
2021/12/13 01:13:14;;;;;;;;;;;4.10;99.90;;;;;;5044176;28;20133;-78
2021/12/13 01:15:48;;;;;;;;;;;4.10;99.90;;;;;;5061282;28;19927;-78
2021/12/13 01:18:32;;;;;;;;;;;4.10;99.90;;;;;;5043757;28;19925;-78
2021/12/13 01:21:14;;;;;;;;;;;4.10;99.90;;;;;;5041649;28;20027;-79
2021/12/13 01:23:46;;;;;;;;;;;4.10;99.90;;;;;;5048535;28;19937;-79
2021/12/13 01:28:46;;;;;;;;;;;4.10;99.90;;;;;;5035119;28;19921;-79
2021/12/13 01:31:16;;;;;;;;;;;4.10;99.90;;;;;;5044679;28;19920;-79
2021/12/13 01:33:45;;;;;;;;;;;4.10;99.90;;;;;;5049622;28;19927;-79
2021/12/13 01:36:19;;;;;;;;;;;4.10;99.90;;;;;;5040562;28;20379;-79
2021/12/13 01:38:48;;;;;;;;;;;4.10;99.90;;;;;;5048174;28;20157;-79
2021/12/13 01:41:20;;;;;;;;;;;4.10;99.90;;;;;;5048264;28;20350;-78
2021/12/13 01:43:49;;;;;;;;;;;4.10;99.90;;;;;;5048974;28;19951;-79
2021/12/13 01:46:16;;;;;;;;;;;4.10;99.90;;;;;;5050601;28;19935;-79
2021/12/13 01:48:44;;;;;;;;;;;4.10;99.90;;;;;;5048156;28;20249;-78
2021/12/13 01:51:13;;;;;;;;;;;4.10;99.90;;;;;;5048770;28;20344;-78
2021/12/13 01:53:45;;;;;;;;;;;4.10;99.90;;;;;;5041137;28;20466;-78
2021/12/13 01:56:38;;;;;;;;;;;4.10;99.90;;;;;;5046128;28;20362;-78
2021/12/13 01:59:30;;;;;;;;;;;4.10;99.90;;;;;;5041153;28;19920;-78
2021/12/13 02:01:59;;;;;;;;;;;4.10;99.90;;;;;;5042980;28;19953;-79
2021/12/13 02:04:26;;;;;;;;;;;4.10;99.90;;;;;;5041831;28;20291;-79
2021/12/13 02:07:00;;;;;;;;;;;4.10;99.90;;;;;;5062704;28;19932;-79
2021/12/13 02:09:29;;;;;;;;;;;4.20;99.90;;;;;;5047086;28;19925;-78
2021/12/13 02:11:58;;;;;;;;;;;4.20;99.90;;;;;;5049984;28;19935;-78
2021/12/13 02:14:28;;;;;;;;;;;4.20;99.90;;;;;;5050170;28;20021;-78
2021/12/13 02:19:32;;;;;;;;;;;4.20;99.90;;;;;;5041612;28;19960;-78
2021/12/13 02:22:05;;;;;;;;;;;4.30;99.90;;;;;;5051153;28;19926;-79
2021/12/13 02:24:31;;;;;;;;;;;4.30;99.90;;;;;;5051460;28;19931;-78
2021/12/13 02:27:02;;;;;;;;;;;4.30;99.90;;;;;;5043846;28;19921;-78
2021/12/13 02:29:36;;;;;;;;;;;4.30;99.90;;;;;;5046086;28;19920;-78
2021/12/13 02:32:05;;;;;;;;;;;4.30;99.90;;;;;;5053170;28;20390;-78
2021/12/13 02:34:39;;;;;;;;;;;4.20;99.90;;;;;;5053580;28;19974;-78
2021/12/13 02:37:06;;;;;;;;;;;4.20;99.90;;;;;;5051902;28;19921;-78
2021/12/13 02:39:39;;;;;;;;;;;4.20;99.90;;;;;;5057461;28;19921;-78
2021/12/13 02:42:07;;;;;;;;;;;4.20;99.90;;;;;;5051390;28;20298;-78
2021/12/13 02:44:38;;;;;;;;;;;4.20;99.90;;;;;;5063615;28;19930;-78
2021/12/13 02:47:10;;;;;;;;;;;4.20;99.90;;;;;;5048724;28;20023;-78
2021/12/13 02:49:38;;;;;;;;;;;4.20;99.90;;;;;;5035004;28;19927;-78
2021/12/13 02:52:06;;;;;;;;;;;4.20;99.90;;;;;;5047784;28;20563;-78
2021/12/13 02:54:38;;;;;;;;;;;4.20;99.90;;;;;;5054969;28;19920;-78
2021/12/13 02:57:06;;;;;;;;;;;4.20;99.90;;;;;;5057020;28;20401;-79
2021/12/13 02:59:34;;;;;;;;;;;4.20;99.90;;;;;;5051997;28;19931;-80
2021/12/13 03:02:13;;;;;;;;;;;4.20;99.90;;;;;;5051368;28;19920;-79
2021/12/13 03:04:43;;;;;;;;;;;4.20;99.90;;;;;;5042833;28;19927;-79
2021/12/13 03:07:10;;;;;;;;;;;4.20;99.90;;;;;;5047612;28;20037;-79
2021/12/13 03:09:38;;;;;;;;;;;4.20;99.90;;;;;;5047561;28;19982;-79
2021/12/13 03:12:07;;;;;;;;;;;4.20;99.90;;;;;;5050838;28;19921;-79
2021/12/13 03:14:38;;;;;;;;;;;4.10;99.90;;;;;;5050845;28;19921;-79
2021/12/13 03:17:13;;;;;;;;;;;4.10;99.90;;;;;;5038511;28;19931;-79
2021/12/13 03:19:42;;;;;;;;;;;4.10;99.90;;;;;;5064013;28;19961;-79
2021/12/13 03:22:14;;;;;;;;;;;4.10;99.90;;;;;;5051761;28;19921;-79
2021/12/13 03:25:01;;;;;;;;;;;4.10;99.90;;;;;;5048912;28;20757;-78
2021/12/13 03:27:47;;;;;;;;;;;4.10;99.90;;;;;;5041177;28;19931;-79
2021/12/13 03:30:37;;;;;;;;;;;4.20;99.90;;;;;;5041774;28;20012;-78
2021/12/13 03:33:06;;;;;;;;;;;4.10;99.90;;;;;;5049462;28;20470;-77
2021/12/13 03:35:38;;;;;;;;;;;4.10;99.90;;;;;;5050323;28;20007;-77
2021/12/13 03:38:14;;;;;;;;;;;4.10;99.90;;;;;;5038909;28;20023;-77
2021/12/13 03:40:41;;;;;;;;;;;4.10;99.90;;;;;;5049845;28;19941;-78
2021/12/13 03:43:11;;;;;;;;;;;4.00;99.90;;;;;;5046419;28;19927;-77
2021/12/13 03:45:42;;;;;;;;;;;4.00;99.90;;;;;;5046100;28;19930;-78
2021/12/13 03:48:09;;;;;;;;;;;3.90;99.90;;;;;;5043799;28;19928;-78
2021/12/13 03:50:39;;;;;;;;;;;3.90;99.90;;;;;;5032866;28;20187;-78
2021/12/13 03:53:17;;;;;;;;;;;3.90;99.90;;;;;;5046480;28;19926;-78
2021/12/13 03:55:45;;;;;;;;;;;3.90;99.90;;;;;;5050367;28;20014;-78
2021/12/13 03:58:16;;;;;;;;;;;3.90;99.90;;;;;;5044008;28;19978;-78
2021/12/13 04:00:56;;;;;;;;;;;3.90;99.90;;;;;;5042676;28;19925;-79
2021/12/13 04:03:24;;;;;;;;;;;4.00;99.90;;;;;;5049243;28;20292;-79
2021/12/13 04:05:50;;;;;;;;;;;4.00;99.90;;;;;;5051805;28;19982;-79
2021/12/13 04:08:18;;;;;;;;;;;4.00;99.90;;;;;;5051895;28;19932;-79
2021/12/13 04:10:51;;;;;;;;;;;4.00;99.90;;;;;;5050469;28;20374;-79
2021/12/13 04:13:19;;;;;;;;;;;4.00;99.90;;;;;;5047123;28;20029;-78
2021/12/13 04:16:12;;;;;;;;;;;4.00;99.90;;;;;;5045071;28;19967;-78
2021/12/13 04:21:16;;;;;;;;;;;4.00;99.90;;;;;;5032443;28;19925;-78
2021/12/13 04:23:52;;;;;;;;;;;4.00;99.90;;;;;;5048149;28;19926;-78
2021/12/13 04:26:19;;;;;;;;;;;4.00;99.90;;;;;;5039959;28;19929;-78
2021/12/13 04:28:48;;;;;;;;;;;4.00;99.90;;;;;;5051820;28;20473;-78
2021/12/13 04:31:17;;;;;;;;;;;4.00;99.90;;;;;;5054521;28;19967;-78
2021/12/13 04:33:46;;;;;;;;;;;4.10;99.90;;;;;;5038586;28;20379;-79
2021/12/13 04:36:32;;;;;;;;;;;4.10;99.90;;;;;;5053968;28;19927;-78
2021/12/13 04:39:10;;;;;;;;;;;4.10;99.90;;;;;;5038743;28;19936;-79
2021/12/13 04:41:56;;;;;;;;;;;4.10;99.90;;;;;;5049751;28;19964;-79
2021/12/13 04:44:34;;;;;;;;;;;4.10;99.90;;;;;;5045589;28;19921;-79
2021/12/13 04:47:09;;;;;;;;;;;4.10;99.90;;;;;;5050901;28;19941;-79
2021/12/13 04:49:39;;;;;;;;;;;4.10;99.90;;;;;;5053933;28;20389;-79
2021/12/13 04:52:08;;;;;;;;;;;4.10;99.90;;;;;;5055054;28;20282;-79
2021/12/13 04:54:38;;;;;;;;;;;4.10;99.90;;;;;;5040205;28;19920;-79
2021/12/13 04:57:04;;;;;;;;;;;4.20;99.90;;;;;;5049874;28;19921;-79
2021/12/13 04:59:32;;;;;;;;;;;4.10;99.90;;;;;;5042123;28;19934;-79
2021/12/13 05:02:01;;;;;;;;;;;4.20;99.90;;;;;;5049402;28;19974;-79
2021/12/13 05:04:30;;;;;;;;;;;4.20;99.90;;;;;;5044435;28;19971;-79
2021/12/13 05:06:58;;;;;;;;;;;4.20;99.90;;;;;;5037786;28;19927;-79
2021/12/13 05:09:26;;;;;;;;;;;4.20;99.90;;;;;;5051160;28;20389;-79
2021/12/13 05:12:02;;;;;;;;;;;4.10;99.90;;;;;;5049723;28;20402;-78
2021/12/13 05:14:37;;;;;;;;;;;4.10;99.90;;;;;;5049955;28;19953;-79
2021/12/13 05:17:15;;;;;;;;;;;4.10;99.90;;;;;;5041051;28;20031;-79
2021/12/13 05:20:08;;;;;;;;;;;4.10;99.90;;;;;;5048136;28;19924;-79
2021/12/13 05:22:41;;;;;;;;;;;4.10;99.90;;;;;;5051767;28;20005;-78
2021/12/13 05:25:08;;;;;;;;;;;4.10;99.90;;;;;;5051679;28;19952;-78
2021/12/13 05:27:37;;;;;;;;;;;4.10;99.90;;;;;;5056539;28;19927;-78
2021/12/13 05:30:18;;;;;;;;;;;4.10;99.90;;;;;;5051788;28;20389;-78
2021/12/13 05:32:50;;;;;;;;;;;4.10;99.90;;;;;;5052076;28;20394;-79
2021/12/13 05:35:28;;;;;;;;;;;4.00;99.90;;;;;;5050421;28;20419;-79
2021/12/13 05:37:57;;;;;;;;;;;4.00;99.90;;;;;;5039122;28;19928;-79
2021/12/13 05:40:40;;;;;;;;;;;3.90;99.90;;;;;;5051488;28;19921;-79
2021/12/13 05:43:18;;;;;;;;;;;3.90;99.90;;;;;;5041247;28;19931;-79
2021/12/13 05:46:08;;;;;;;;;;;3.80;99.90;;;;;;5045505;28;20017;-79
2021/12/13 05:48:40;;;;;;;;;;;3.90;99.90;;;;;;5033394;28;19935;-79
2021/12/13 05:51:08;;;;;;;;;;;3.90;99.90;;;;;;5047143;28;19928;-79
2021/12/13 05:53:36;;;;;;;;;;;3.90;99.90;;;;;;5044448;28;19924;-79
2021/12/13 05:56:08;;;;;;;;;;;3.90;99.90;;;;;;5044704;28;19924;-79
2021/12/13 05:58:46;;;;;;;;;;;4.00;99.90;;;;;;5046225;28;20294;-80
2021/12/13 06:01:23;;;;;;;;;;;4.00;99.90;;;;;;5047278;28;19982;-79
2021/12/13 06:03:53;;;;;;;;;;;4.00;99.90;;;;;;5054123;28;19924;-80
2021/12/13 06:06:22;;;;;;;;;;;4.10;99.90;;;;;;5041773;28;19927;-79
2021/12/13 06:08:52;;;;;;;;;;;4.10;99.90;;;;;;5052234;28;20007;-78
2021/12/13 06:11:38;;;;;;;;;;;4.10;99.90;;;;;;5051371;28;19929;-78
2021/12/13 06:14:14;;;;;;;;;;;4.10;99.90;;;;;;5051349;28;19921;-78
2021/12/13 06:17:00;;;;;;;;;;;4.20;99.90;;;;;;5053230;28;19920;-78
2021/12/13 06:19:37;;;;;;;;;;;4.10;99.90;;;;;;5050436;28;20016;-79
2021/12/13 06:22:13;;;;;;;;;;;4.20;99.90;;;;;;5051272;28;20362;-79
2021/12/13 06:24:44;;;;;;;;;;;4.20;99.90;;;;;;5050333;28;19921;-79
2021/12/13 06:27:22;;;;;;;;;;;4.20;99.90;;;;;;5047880;28;19921;-79
2021/12/13 06:29:51;;;;;;;;;;;4.20;99.90;;;;;;5050880;28;19928;-78
2021/12/13 06:32:20;;;;;;;;;;;4.30;99.90;;;;;;5051794;28;19920;-78
2021/12/13 06:34:47;;;;;;;;;;;4.20;99.90;;;;;;5049312;28;19925;-78
2021/12/13 06:37:14;;;;;;;;;;;4.20;99.90;;;;;;5049619;28;20570;-78
2021/12/13 06:39:40;;;;;;;;;;;4.20;99.90;;;;;;5059454;28;20014;-78
2021/12/13 06:42:07;;;;;;;;;;;4.20;99.90;;;;;;5046967;28;19956;-78
2021/12/13 06:44:54;;;;;;;;;;;4.20;99.90;;;;;;5044955;28;20023;-78
2021/12/13 06:47:22;;;;;;;;;;;4.20;99.90;;;;;;5042738;28;20399;-78
2021/12/13 06:49:57;;;;;;;;;;;4.20;99.90;;;;;;5050631;28;19924;-79
2021/12/13 06:52:32;;;;;;;;;;;4.20;99.90;;;;;;5046998;28;19933;-78
2021/12/13 06:55:04;;;;;;;;;;;4.20;99.90;;;;;;5051239;28;19931;-78
2021/12/13 06:57:36;;;;;;;;;;;4.20;99.90;;;;;;5045182;28;19930;-78
2021/12/13 07:00:19;;;;;;;;;;;4.20;99.90;;;;;;5048664;28;19933;-78
2021/12/13 07:02:56;;;;;;;;;;;4.30;99.90;;;;;;5051184;28;19927;-78
2021/12/13 07:05:32;;;;;;;;;;;4.30;99.90;;;;;;5054672;28;19934;-78
2021/12/13 07:08:09;;;;;;;;;;;4.30;99.90;;;;;;5045753;28;19941;-78
2021/12/13 07:10:46;;;;;;;;;;;4.30;99.90;;;;;;5039570;28;20045;-79
2021/12/13 07:13:19;;;;;;;;;;;4.30;99.90;;;;;;5053831;28;19927;-78
2021/12/13 07:15:54;;;;;;;;;;;4.30;99.90;;;;;;5058827;28;19927;-77
2021/12/13 07:18:29;;;;;;;;;;;4.30;99.90;;;;;;5049464;28;19924;-78
2021/12/13 07:20:56;;;;;;;;;;;4.30;99.90;;;;;;5047509;28;20454;-78
2021/12/13 07:23:42;;;;;;;;;;;4.30;99.90;;;;;;5050813;28;19962;-77
2021/12/13 07:26:09;;;;;;;;;;;4.30;99.90;;;;;;5049034;28;19925;-77
2021/12/13 07:28:36;;;;;;;;;;;4.40;99.90;;;;;;5049427;28;19921;-79
2021/12/13 07:31:34;;;;;;;;;;;4.40;99.90;;;;;;5044204;28;19927;-78
2021/12/13 07:34:12;;;;;;;;;;;4.50;99.90;;;;;;5058325;28;20352;-78
2021/12/13 07:36:39;;;;;;;;;;;4.40;99.90;;;;;;5047320;28;19924;-78
2021/12/13 07:39:12;;;;;;;;;;;4.50;99.90;;;;;;5064336;28;20003;-78
2021/12/13 07:41:41;;;;;;;;;;;4.50;99.90;;;;;;5048484;28;20004;-78
2021/12/13 07:44:24;;;;;;;;;;;4.50;99.90;;;;;;5045459;28;19920;-77
2021/12/13 07:46:58;;;;;;;;;;;4.50;99.90;;;;;;5052052;28;19931;-78
2021/12/13 07:49:29;;;;;;;;;;;4.50;99.90;;;;;;5052044;28;19920;-78
2021/12/13 07:52:00;;;;;;;;;;;4.50;99.90;;;;;;5054103;28;19927;-78
2021/12/13 07:54:27;;;;;;;;;;;4.50;99.90;;;;;;5050129;28;19960;-77
2021/12/13 07:56:56;;;;;;;;;;;4.50;99.90;;;;;;5048218;28;19924;-78
2021/12/13 07:59:34;;;;;;;;;;;4.60;99.90;;;;;;5044623;28;19927;-78
2021/12/13 08:02:05;;;;;;;;;;;4.60;99.90;;;;;;5037103;28;19942;-78
2021/12/13 08:04:35;;;;;;;;;;;4.60;99.90;;;;;;5050618;28;20031;-78
2021/12/13 08:07:16;;;;;;;;;;;4.70;99.90;;;;;;5047939;28;19932;-78
2021/12/13 08:09:48;;;;;;;;;;;4.70;99.90;;;;;;5046982;28;19921;-78
2021/12/13 08:12:23;;;;;;;;;;;4.70;99.90;;;;;;5048822;28;19979;-78
2021/12/13 08:14:55;;;;;;;;;;;4.80;99.90;;;;;;5049895;28;19932;-81
2021/12/13 08:17:32;;;;;;;;;;;4.90;99.90;;;;;;5044308;28;19927;-78
2021/12/13 08:20:05;;;;;;;;;;;4.90;99.90;;;;;;5042062;28;20492;-78
2021/12/13 08:22:32;;;;;;;;;;;4.90;99.90;;;;;;5040621;28;19935;-78
2021/12/13 08:25:07;;;;;;;;;;;5.00;99.90;;;;;;5046546;28;19925;-78
2021/12/13 08:27:36;;;;;;;;;;;5.00;99.90;;;;;;5050735;28;20474;-78
2021/12/13 08:30:21;;;;;;;;;;;5.00;99.90;;;;;;5050230;28;19921;-78
2021/12/13 08:32:56;;;;;;;;;;;5.10;99.90;;;;;;5045707;28;19921;-78
2021/12/13 08:35:45;;;;;;;;;;;5.10;99.90;;;;;;5037199;28;19967;-78
2021/12/13 08:38:22;;;;;;;;;;;5.10;99.90;;;;;;5029702;28;19937;-78
2021/12/13 08:40:49;;;;;;;;;;;5.10;99.90;;;;;;5039866;28;19941;-78
2021/12/13 08:43:33;;;;;;;;;;;5.20;99.90;;;;;;5046968;28;20013;-78
2021/12/13 08:46:02;;;;;;;;;;;5.20;99.90;;;;;;5048163;28;19920;-78
2021/12/13 08:48:29;;;;;;;;;;;5.20;99.90;;;;;;5055509;28;19928;-78
2021/12/13 08:50:58;;;;;;;;;;;5.30;99.90;;;;;;5044691;28;19951;-78
2021/12/13 08:53:35;;;;;;;;;;;5.30;99.90;;;;;;5054366;28;19927;-78
2021/12/13 08:56:11;;;;;;;;;;;5.40;99.90;;;;;;5066435;28;19924;-78
2021/12/13 08:58:49;;;;;;;;;;;5.40;99.90;;;;;;5059340;28;19931;-77
2021/12/13 09:01:16;;;;;;;;;;;5.40;99.90;;;;;;5054686;28;19992;-78
2021/12/13 09:03:46;;;;;;;;;;;5.50;99.90;;;;;;5064357;28;20019;-78
2021/12/13 09:06:17;;;;;;;;;;;5.60;99.90;;;;;;5060696;28;19999;-79
2021/12/13 09:08:46;;;;;;;;;;;5.60;99.90;;;;;;5058312;28;19920;-78
2021/12/13 09:11:30;;;;;;;;;;;5.70;99.90;;;;;;5071876;28;19931;-78
2021/12/13 09:14:10;;;;;;;;;;;5.70;99.90;;;;;;5064407;28;19951;-78
2021/12/13 09:16:44;;;;;;;;;;;5.80;99.90;;;;;;5056729;28;19937;-78
2021/12/13 09:19:21;;;;;;;;;;;5.90;99.90;;;;;;5051374;28;19927;-78
2021/12/13 09:21:50;;;;;;;;;;;6.00;99.90;;;;;;5062571;28;20402;-79
2021/12/13 09:24:36;;;;;;;;;;;6.00;99.90;;;;;;5055748;28;19931;-78
2021/12/13 09:27:08;;;;;;;;;;;6.00;99.90;;;;;;5042288;28;20200;-81
2021/12/13 09:29:54;;;;;;;;;;;6.10;99.90;;;;;;5050749;28;20004;-81
2021/12/13 09:32:23;;;;;;;;;;;6.20;99.90;;;;;;5047730;28;19947;-79
2021/12/13 09:34:54;;;;;;;;;;;6.10;99.90;;;;;;5051276;28;19921;-78
2021/12/13 09:37:21;;;;;;;;;;;6.10;99.90;;;;;;5040241;28;19921;-79
2021/12/13 09:39:57;;;;;;;;;;;6.20;99.90;;;;;;5048552;28;19925;-78
2021/12/13 09:42:24;;;;;;;;;;;6.20;99.90;;;;;;5053387;28;20410;-78
2021/12/13 09:44:57;;;;;;;;;;;6.20;99.90;;;;;;5051285;28;19936;-79
2021/12/13 09:47:29;;;;;;;;;;;6.20;99.90;;;;;;5049378;28;19927;-79
2021/12/13 09:49:56;;;;;;;;;;;6.30;99.90;;;;;;5053692;28;20449;-79
2021/12/13 09:52:42;;;;;;;;;;;6.30;99.90;;;;;;5052170;28;19927;-79
2021/12/13 09:55:21;;;;;;;;;;;6.30;99.90;;;;;;5044773;28;20166;-79
2021/12/13 09:57:57;;;;;;;;;;;6.30;99.90;;;;;;5051604;28;19956;-80
2021/12/13 10:00:34;;;;;;;;;;;6.40;99.90;;;;;;5050598;28;20387;-78
2021/12/13 10:03:08;;;;;;;;;;;6.40;99.90;;;;;;5036638;28;20451;-79
2021/12/13 10:05:39;;;;;;;;;;;6.50;99.90;;;;;;5049723;28;20371;-79
2021/12/13 10:08:11;;;;;;;;;;;6.50;99.90;;;;;;5066800;28;20430;-79
2021/12/13 10:10:43;;;;;;;;;;;6.60;99.90;;;;;;5052642;28;19939;-79
2021/12/13 10:13:14;;;;;;;;;;;6.70;99.90;;;;;;5051671;28;19943;-79
2021/12/13 10:15:47;;;;;;;;;;;6.90;99.90;;;;;;5056561;28;19924;-79
2021/12/13 10:18:16;;;;;;;;;;;7.00;99.90;;;;;;5055191;28;19927;-81
2021/12/13 10:21:02;;;;;;;;;;;7.10;99.90;;;;;;5057120;28;19964;-78
2021/12/13 10:23:34;;;;;;;;;;;7.10;99.90;;;;;;5050830;28;19988;-78
2021/12/13 10:26:21;;;;;;;;;;;7.10;99.90;;;;;;5044915;28;19931;-78
2021/12/13 10:28:55;;;;;;;;;;;7.10;99.90;;;;;;5052538;28;19920;-81
2021/12/13 10:31:28;;;;;;;;;;;7.20;99.90;;;;;;5063946;28;19924;-81
2021/12/13 10:33:56;;;;;;;;;;;7.30;99.90;;;;;;5044852;28;19931;-79
2021/12/13 10:36:24;;;;;;;;;;;7.30;99.90;;;;;;5051619;28;20148;-79
2021/12/13 10:38:59;;;;;;;;;;;7.40;99.90;;;;;;5051219;28;19959;-79
2021/12/13 10:41:30;;;;;;;;;;;7.50;99.90;;;;;;5046946;28;19927;-79
2021/12/13 10:43:59;;;;;;;;;;;7.50;99.90;;;;;;5053212;28;20397;-79
2021/12/13 10:46:34;;;;;;;;;;;7.50;99.90;;;;;;5053303;28;19925;-79
2021/12/13 10:49:05;;;;;;;;;;;7.60;99.90;;;;;;5056558;28;19924;-79
2021/12/13 10:51:34;;;;;;;;;;;7.60;99.90;;;;;;5053744;28;20284;-79
2021/12/13 10:54:04;;;;;;;;;;;7.70;99.90;;;;;;5051397;28;20430;-79
2021/12/13 10:56:33;;;;;;;;;;;7.80;99.90;;;;;;5052604;28;20028;-79
2021/12/13 10:59:09;;;;;;;;;;;7.70;99.90;;;;;;5055447;28;19937;-79
2021/12/13 11:01:37;;;;;;;;;;;7.60;99.90;;;;;;5052775;28;19983;-79
2021/12/13 11:04:07;;;;;;;;;;;7.70;99.90;;;;;;5052695;28;19920;-79
2021/12/13 11:06:36;;;;;;;;;;;7.90;99.90;;;;;;5049429;28;20423;-79
2021/12/13 11:09:10;;;;;;;;;;;8.00;99.90;;;;;;5046639;28;19921;-79
2021/12/13 11:11:43;;;;;;;;;;;8.10;99.90;;;;;;5051447;28;19927;-79
2021/12/13 11:14:13;;;;;;;;;;;8.10;99.90;;;;;;5045472;28;19939;-79
2021/12/13 11:16:44;;;;;;;;;;;8.20;99.90;;;;;;5055221;28;19928;-79
2021/12/13 11:19:13;;;;;;;;;;;8.10;99.90;;;;;;5035137;28;19925;-79
2021/12/13 11:21:41;;;;;;;;;;;8.10;99.90;;;;;;5045124;28;20016;-79
2021/12/13 11:24:09;;;;;;;;;;;8.10;99.90;;;;;;5047603;28;20322;-80
2021/12/13 11:26:37;;;;;;;;;;;8.20;99.90;;;;;;5044970;28;19927;-80
2021/12/13 11:29:04;;;;;;;;;;;8.20;99.90;;;;;;5047185;28;19925;-79
2021/12/13 11:31:47;;;;;;;;;;;8.30;99.90;;;;;;5046779;28;19920;-79
2021/12/13 11:34:32;;;;;;;;;;;8.30;99.90;;;;;;5042246;28;19939;-80
2021/12/13 11:37:20;;;;;;;;;;;8.30;99.90;;;;;;5049376;28;19929;-79
2021/12/13 11:39:59;;;;;;;;;;;8.40;99.90;;;;;;5049923;28;20423;-80
2021/12/13 11:42:26;;;;;;;;;;;8.40;99.90;;;;;;5042465;28;20363;-80
2021/12/13 11:45:08;;;;;;;;;;;8.40;99.90;;;;;;5059335;28;19951;-80
2021/12/13 11:47:41;;;;;;;;;;;8.40;99.90;;;;;;5049443;28;19920;-80
2021/12/13 11:50:28;;;;;;;;;;;8.40;99.90;;;;;;5052806;28;19928;-80
2021/12/13 11:53:14;;;;;;;;;;;8.40;99.90;;;;;;5044705;28;19920;-80
2021/12/13 11:56:04;;;;;;;;;;;8.50;99.90;;;;;;5038338;28;20330;-80
2021/12/13 11:58:31;;;;;;;;;;;8.60;99.90;;;;;;5048898;28;20281;-80
2021/12/13 12:01:17;;;;;;;;;;;8.80;99.90;;;;;;5039617;28;20569;-80
2021/12/13 12:03:59;;;;;;;;;;;8.90;99.90;;;;;;5043224;28;19921;-80
2021/12/13 12:06:45;;;;;;;;;;;8.80;99.90;;;;;;5058589;28;19931;-80
2021/12/13 12:12:37;;;;;;;;;;;8.80;99.90;;;;;;5048126;28;19963;-76
2021/12/13 12:15:05;;;;;;;;;;;8.90;99.90;;;;;;5042795;28;20014;-76
2021/12/13 12:17:32;;;;;;;;;;;9.00;99.90;;;;;;5044242;28;20381;-77
2021/12/13 12:19:59;;;;;;;;;;;9.10;99.90;;;;;;5048403;28;19962;-77
2021/12/13 12:22:45;;;;;;;;;;;9.20;99.90;;;;;;5043128;28;20140;-77
2021/12/13 12:25:12;;;;;;;;;;;9.00;99.90;;;;;;5048040;28;19925;-77
2021/12/13 12:27:39;;;;;;;;;;;8.90;99.90;;;;;;5046265;28;19923;-76
2021/12/13 12:30:10;;;;;;;;;;;8.80;99.90;;;;;;5040075;28;19932;-77
2021/12/13 12:32:41;;;;;;;;;;;8.80;99.90;;;;;;5050618;28;20749;-77
2021/12/13 12:35:11;;;;;;;;;;;8.90;99.90;;;;;;5048302;28;19921;-77
2021/12/13 12:37:57;;;;;;;;;;;8.90;99.90;;;;;;5042895;28;19989;-77
2021/12/13 12:40:35;;;;;;;;;;;9.00;99.90;;;;;;5049831;28;20001;-77
2021/12/13 12:43:07;;;;;;;;;;;8.90;99.90;;;;;;5045914;28;19925;-77
2021/12/13 12:45:33;;;;;;;;;;;8.90;99.90;;;;;;5052867;28;19943;-76
2021/12/13 12:48:05;;;;;;;;;;;8.80;99.90;;;;;;5050205;28;19925;-77
2021/12/13 12:50:32;;;;;;;;;;;8.80;99.90;;;;;;5048655;28;19943;-77
2021/12/13 12:53:04;;;;;;;;;;;9.00;99.90;;;;;;5051708;28;19925;-77
2021/12/13 12:55:52;;;;;;;;;;;9.10;99.90;;;;;;5050986;28;19938;-77
2021/12/13 12:58:30;;;;;;;;;;;9.00;99.90;;;;;;5045353;28;19992;-77
2021/12/13 13:00:59;;;;;;;;;;;9.00;99.90;;;;;;5049075;28;20015;-77
2021/12/13 13:03:35;;;;;;;;;;;9.10;99.90;;;;;;5041114;28;19940;-77
2021/12/13 13:06:10;;;;;;;;;;;8.90;99.90;;;;;;5039142;28;19928;-77
2021/12/13 13:08:39;;;;;;;;;;;8.80;99.90;;;;;;5055367;28;19927;-77
2021/12/13 13:13:47;;;;;;;;;;;8.90;99.90;;;;;;5049888;28;19931;-77
2021/12/13 13:16:19;;;;;;;;;;;8.90;99.90;;;;;;5048345;28;20297;-76
2021/12/13 13:18:46;;;;;;;;;;;8.80;99.90;;;;;;5050832;28;19921;-77
2021/12/13 13:21:15;;;;;;;;;;;8.90;99.90;;;;;;5051021;28;20389;-77
2021/12/13 13:23:46;;;;;;;;;;;8.90;99.90;;;;;;5054696;28;20417;-77
2021/12/13 13:26:15;;;;;;;;;;;8.90;99.90;;;;;;5047152;28;20020;-77
2021/12/13 13:28:51;;;;;;;;;;;9.00;99.90;;;;;;5041938;28;20028;-77
2021/12/13 13:31:37;;;;;;;;;;;9.00;99.90;;;;;;5050371;28;20021;-77
2021/12/13 13:34:08;;;;;;;;;;;9.00;99.90;;;;;;5049374;28;19927;-77
2021/12/13 13:36:41;;;;;;;;;;;8.90;99.90;;;;;;5050249;28;20398;-77
2021/12/13 13:39:18;;;;;;;;;;;8.90;99.90;;;;;;5048601;28;19924;-74
2021/12/13 13:42:06;;;;;;;;;;;8.90;99.90;;;;;;5049576;28;20008;-75
2021/12/13 13:44:42;;;;;;;;;;;8.90;99.90;;;;;;5038504;28;19975;-74
2021/12/13 13:47:11;;;;;;;;;;;8.80;99.90;;;;;;5037562;28;20355;-74
2021/12/13 13:49:39;;;;;;;;;;;8.70;99.90;;;;;;5050897;28;19958;-76
2021/12/13 13:52:20;;;;;;;;;;;8.60;99.90;;;;;;5049962;28;19925;-77
2021/12/13 13:54:51;;;;;;;;;;;8.60;99.90;;;;;;5050845;28;19921;-77
2021/12/13 13:57:23;;;;;;;;;;;8.60;99.90;;;;;;5045259;28;19920;-75
2021/12/13 13:59:50;;;;;;;;;;;8.70;99.90;;;;;;5047388;28;19928;-75
2021/12/13 14:02:29;;;;;;;;;;;8.60;99.90;;;;;;5053702;28;19932;-75
2021/12/13 14:04:59;;;;;;;;;;;8.60;99.90;;;;;;5049021;28;19951;-75
2021/12/13 14:07:28;;;;;;;;;;;8.60;99.90;;;;;;5057451;28;19925;-75
2021/12/13 14:10:07;;;;;;;;;;;8.60;99.90;;;;;;5045990;28;20326;-75
2021/12/13 14:12:36;;;;;;;;;;;8.50;99.90;;;;;;5043204;28;19925;-75
2021/12/13 14:15:08;;;;;;;;;;;8.40;99.90;;;;;;5047304;28;20325;-76
2021/12/13 14:17:37;;;;;;;;;;;8.30;99.90;;;;;;5053174;28;19920;-76
2021/12/13 14:20:16;;;;;;;;;;;8.30;99.90;;;;;;5047282;28;20374;-76
2021/12/13 14:22:43;;;;;;;;;;;8.20;99.90;;;;;;5053800;28;19971;-76
2021/12/13 14:25:10;;;;;;;;;;;8.20;99.90;;;;;;5031399;28;19920;-76
2021/12/13 14:27:37;;;;;;;;;;;8.20;99.90;;;;;;5046862;28;19963;-76
2021/12/13 14:30:35;;;;;;;;;;;8.10;99.90;;;;;;5047066;28;20493;-76
2021/12/13 14:33:18;;;;;;;;;;;8.10;99.90;;;;;;5049304;28;20610;-75
2021/12/13 14:35:53;;;;;;;;;;;8.10;99.90;;;;;;5046657;28;20683;-75
2021/12/13 14:38:19;;;;;;;;;;;8.10;99.90;;;;;;5053070;28;20263;-75
2021/12/13 14:40:50;;;;;;;;;;;8.00;99.90;;;;;;5052327;28;19948;-77
2021/12/13 14:43:22;;;;;;;;;;;8.00;99.90;;;;;;5033927;28;19921;-76
2021/12/13 14:45:49;;;;;;;;;;;8.00;99.90;;;;;;5050350;28;19935;-76
2021/12/13 14:48:20;;;;;;;;;;;7.90;99.90;;;;;;5048036;28;19948;-76
2021/12/13 14:50:48;;;;;;;;;;;7.80;99.90;;;;;;5049698;28;19920;-76
2021/12/13 14:53:20;;;;;;;;;;;7.80;99.90;;;;;;5044712;28;19932;-76
2021/12/13 14:55:47;;;;;;;;;;;7.70;99.90;;;;;;5064583;28;19928;-77
2021/12/13 14:58:16;;;;;;;;;;;7.70;99.90;;;;;;5029438;28;19920;-76
2021/12/13 15:00:45;;;;;;;;;;;7.70;99.90;;;;;;5045669;28;19928;-76
2021/12/13 15:03:14;;;;;;;;;;;7.60;99.90;;;;;;5056045;28;19924;-76
2021/12/13 15:05:43;;;;;;;;;;;7.60;99.90;;;;;;5053601;28;20436;-76
2021/12/13 15:08:11;;;;;;;;;;;7.50;99.90;;;;;;5054330;28;19921;-76
2021/12/13 15:10:42;;;;;;;;;;;7.40;99.90;;;;;;5049400;28;19928;-76
2021/12/13 15:13:10;;;;;;;;;;;7.40;99.90;;;;;;5055832;28;19920;-76
2021/12/13 15:15:52;;;;;;;;;;;7.40;99.90;;;;;;5034222;28;20671;-77
2021/12/13 15:18:28;;;;;;;;;;;7.40;99.90;;;;;;5042397;28;19974;-76
2021/12/13 15:20:56;;;;;;;;;;;7.30;99.90;;;;;;5033858;28;19970;-76